Time;durP1;ratioP1;P1;durP2;ratioP2;P2;SDS_P1;SDS_P2;PMS_P1;PMS_P2;Temp;Humidity;BMP_temperature;BMP_pressure;BME280_temperature;BME280_humidity;BME280_pressure;Samples;Min_cycle;Max_cycle;Signal;HPM_P1;HPM_P2
2022/06/06 00:02:10;;;;;;;;;;;;;;;;;;5056770;28;19923;-78
2022/06/06 00:04:35;;;;;;;;;;;;;;;;;;5073587;28;19916;-78
2022/06/06 00:07:01;;;;;;;;;;;;;;;;;;5058577;28;20019;-78
2022/06/06 00:09:27;;;;;;;;;;;;;;;;;;5075010;28;19963;-78
2022/06/06 00:11:55;;;;;;;;;;;;;;;;;;5074928;28;19931;-77
2022/06/06 00:14:20;;;;;;;;;;;;;;;;;;5074534;28;19943;-78
2022/06/06 00:16:48;;;;;;;;;;;;;;;;;;5060938;28;19916;-78
2022/06/06 00:19:13;;;;;;;;;;;;;;;;;;5081117;28;20348;-78
2022/06/06 00:21:40;;;;;;;;;;;;;;;;;;5062889;28;19920;-78
2022/06/06 00:24:05;;;;;;;;;;;;;;;;;;5063561;28;19927;-78
2022/06/06 00:26:31;;;;;;;;;;;;;;;;;;5063058;28;20366;-78
2022/06/06 00:28:57;;;;;;;;;;;;;;;;;;5079830;28;19975;-78
2022/06/06 00:36:55;;;;;;;;;;;;;;;;;;5061739;28;19916;-78
2022/06/06 00:39:21;;;;;;;;;;;;;;;;;;5059956;28;20383;-78
2022/06/06 00:41:52;;;;;;;;;;;;;;;;;;5060227;28;19917;-79
2022/06/06 00:44:27;;;;;;;;;;;;;;;;;;5060279;28;19916;-78
2022/06/06 00:47:11;;;;;;;;;;;;;;;;;;5059540;28;19917;-78
2022/06/06 00:49:38;;;;;;;;;;;;;;;;;;5061849;28;19921;-78
2022/06/06 00:52:07;;;;;;;;;;;;;;;;;;5059993;28;19924;-79
2022/06/06 00:54:35;;;;;;;;;;;;;;;;;;5060074;28;19921;-78
2022/06/06 00:57:06;;;;;;;;;;;;;;;;;;5062558;28;19916;-78
2022/06/06 00:59:34;;;;;;;;;;;;;;;;;;5088579;28;20423;-78
2022/06/06 01:02:02;;;;;;;;;;;;;;;;;;5102354;28;19920;-78
2022/06/06 01:04:28;;;;;;;;;;;;;;;;;;5104020;28;19923;-79
2022/06/06 01:06:56;;;;;;;;;;;;;;;;;;5084925;28;19916;-78
2022/06/06 01:09:22;;;;;;;;;;;;;;;;;;5101820;28;19916;-78
2022/06/06 01:11:48;;;;;;;;;;;;;;;;;;5102568;28;20014;-78
2022/06/06 01:14:17;;;;;;;;;;;;;;;;;;5094976;28;20667;-78
2022/06/06 01:17:03;;;;;;;;;;;;;;;;;;5096397;28;19916;-78
2022/06/06 01:19:40;;;;;;;;;;;;;;;;;;5094114;28;19920;-78
2022/06/06 01:22:42;;;;;;;;;;;;;;;;;;5078758;28;19916;-78
2022/06/06 01:25:22;;;;;;;;;;;;;;;;;;5005917;28;19917;-78
2022/06/06 01:27:57;;;;;;;;;;;;;;;;;;5077452;28;20392;-78
2022/06/06 01:30:27;;;;;;;;;;;;;;;;;;5067893;28;20397;-78
2022/06/06 01:32:54;;;;;;;;;;;;;;;;;;5080654;28;20400;-78
2022/06/06 01:35:24;;;;;;;;;;;;;;;;;;5079465;28;19982;-78
2022/06/06 01:37:51;;;;;;;;;;;;;;;;;;5079525;28;19916;-78
2022/06/06 01:40:18;;;;;;;;;;;;;;;;;;5063236;28;19927;-78
2022/06/06 01:42:50;;;;;;;;;;;;;;;;;;5080611;28;20270;-78
2022/06/06 01:45:19;;;;;;;;;;;;;;;;;;5080032;28;19939;-78
2022/06/06 01:47:53;;;;;;;;;;;;;;;;;;5098209;28;19955;-78
2022/06/06 01:50:19;;;;;;;;;;;;;;;;;;5083749;28;19916;-78
2022/06/06 01:52:53;;;;;;;;;;;;;;;;;;5081507;28;20398;-78
2022/06/06 01:55:19;;;;;;;;;;;;;;;;;;5081875;28;20335;-79
2022/06/06 01:57:46;;;;;;;;;;;;;;;;;;5082474;28;19921;-79
2022/06/06 02:00:12;;;;;;;;;;;;;;;;;;5065188;28;20357;-79
2022/06/06 02:02:40;;;;;;;;;;;;;;;;;;5068808;28;20336;-78
2022/06/06 02:05:06;;;;;;;;;;;;;;;;;;5096366;28;19924;-78
2022/06/06 02:07:33;;;;;;;;;;;;;;;;;;5078247;28;20446;-78
2022/06/06 02:09:58;;;;;;;;;;;;;;;;;;5094815;28;19923;-78
2022/06/06 02:12:25;;;;;;;;;;;;;;;;;;5077786;28;19952;-78
2022/06/06 02:14:50;;;;;;;;;;;;;;;;;;5094804;28;19923;-78
2022/06/06 02:17:17;;;;;;;;;;;;;;;;;;5078859;28;20009;-78
2022/06/06 02:19:43;;;;;;;;;;;;;;;;;;5086360;28;19955;-79
2022/06/06 02:22:10;;;;;;;;;;;;;;;;;;5088718;28;19974;-79
2022/06/06 02:24:35;;;;;;;;;;;;;;;;;;5091234;28;19976;-79
2022/06/06 02:27:00;;;;;;;;;;;;;;;;;;5107675;28;19923;-78
2022/06/06 02:29:26;;;;;;;;;;;;;;;;;;5081402;28;19912;-78
2022/06/06 02:31:51;;;;;;;;;;;;;;;;;;5081457;28;19923;-78
2022/06/06 02:34:17;;;;;;;;;;;;;;;;;;5080941;28;19916;-78
2022/06/06 02:36:44;;;;;;;;;;;;;;;;;;5099661;28;19922;-78
2022/06/06 02:39:09;;;;;;;;;;;;;;;;;;5098083;28;19928;-78
2022/06/06 02:41:35;;;;;;;;;;;;;;;;;;5098436;28;19919;-78
2022/06/06 02:44:00;;;;;;;;;;;;;;;;;;5101045;28;19920;-79
2022/06/06 02:46:26;;;;;;;;;;;;;;;;;;5109945;28;19923;-79
2022/06/06 02:48:51;;;;;;;;;;;;;;;;;;5090651;28;19961;-79
2022/06/06 02:51:16;;;;;;;;;;;;;;;;;;5089400;28;19916;-79
2022/06/06 02:53:42;;;;;;;;;;;;;;;;;;5089175;28;20300;-79
2022/06/06 02:56:09;;;;;;;;;;;;;;;;;;5105892;28;20415;-79
2022/06/06 02:58:34;;;;;;;;;;;;;;;;;;5090838;28;19919;-79
2022/06/06 03:01:05;;;;;;;;;;;;;;;;;;5126594;28;19927;-79
2022/06/06 03:03:31;;;;;;;;;;;;;;;;;;5104755;28;19923;-79
2022/06/06 03:06:09;;;;;;;;;;;;;;;;;;5101706;28;19915;-79
2022/06/06 03:08:41;;;;;;;;;;;;;;;;;;5084366;28;20010;-78
2022/06/06 03:11:27;;;;;;;;;;;;;;;;;;5085067;28;19916;-79
2022/06/06 03:14:02;;;;;;;;;;;;;;;;;;5084049;28;19915;-79
2022/06/06 03:22:37;;;;;;;;;;;;;;;;;;5108615;28;19923;-79
2022/06/06 03:25:12;;;;;;;;;;;;;;;;;;5091461;28;19916;-79
2022/06/06 03:27:40;;;;;;;;;;;;;;;;;;5090846;28;20368;-78
2022/06/06 03:30:06;;;;;;;;;;;;;;;;;;5107509;28;19974;-79
2022/06/06 03:32:37;;;;;;;;;;;;;;;;;;5089865;28;19912;-79
2022/06/06 03:35:18;;;;;;;;;;;;;;;;;;5107822;28;20304;-79
2022/06/06 03:38:05;;;;;;;;;;;;;;;;;;5125865;28;19916;-78
2022/06/06 03:40:30;;;;;;;;;;;;;;;;;;5090297;28;20294;-79
2022/06/06 03:43:14;;;;;;;;;;;;;;;;;;5126232;28;19923;-79
2022/06/06 03:45:43;;;;;;;;;;;;;;;;;;5089702;28;19915;-78
2022/06/06 03:48:16;;;;;;;;;;;;;;;;;;5124958;28;20389;-78
2022/06/06 03:51:01;;;;;;;;;;;;;;;;;;5107421;28;19942;-79
2022/06/06 03:53:28;;;;;;;;;;;;;;;;;;5109399;28;19915;-79
2022/06/06 03:56:02;;;;;;;;;;;;;;;;;;5110018;28;19961;-79
2022/06/06 03:58:30;;;;;;;;;;;;;;;;;;5092404;28;19966;-79
2022/06/06 04:00:57;;;;;;;;;;;;;;;;;;5092875;28;19970;-79
2022/06/06 04:03:24;;;;;;;;;;;;;;;;;;5092535;28;19923;-79
2022/06/06 04:05:51;;;;;;;;;;;;;;;;;;5091198;28;19968;-78
2022/06/06 04:08:16;;;;;;;;;;;;;;;;;;5127385;28;20284;-79
2022/06/06 04:10:42;;;;;;;;;;;;;;;;;;5090877;28;19916;-78
2022/06/06 04:13:24;;;;;;;;;;;;;;;;;;5088186;28;19981;-78
2022/06/06 04:16:02;;;;;;;;;;;;;;;;;;5099919;28;20018;-78
2022/06/06 04:18:43;;;;;;;;;;;;;;;;;;5083625;28;19923;-79
2022/06/06 04:21:28;;;;;;;;;;;;;;;;;;5100576;28;19951;-79
2022/06/06 04:23:56;;;;;;;;;;;;;;;;;;5083134;28;19916;-79
2022/06/06 04:26:34;;;;;;;;;;;;;;;;;;5100686;28;19916;-78
2022/06/06 04:29:17;;;;;;;;;;;;;;;;;;5083279;28;20277;-78
2022/06/06 04:31:49;;;;;;;;;;;;;;;;;;5100293;28;19937;-78
2022/06/06 04:34:14;;;;;;;;;;;;;;;;;;5083043;28;20292;-78
2022/06/06 04:36:40;;;;;;;;;;;;;;;;;;5092253;28;19916;-78
2022/06/06 04:39:12;;;;;;;;;;;;;;;;;;5079853;28;19927;-78
2022/06/06 04:41:39;;;;;;;;;;;;;;;;;;5083885;28;20011;-79
2022/06/06 04:44:33;;;;;;;;;;;;;;;;;;5086371;28;20025;-79
2022/06/06 04:47:02;;;;;;;;;;;;;;;;;;5059409;28;19916;-78
2022/06/06 04:49:28;;;;;;;;;;;;;;;;;;5098075;28;19939;-78
2022/06/06 04:51:53;;;;;;;;;;;;;;;;;;5079484;28;19912;-78
2022/06/06 04:54:22;;;;;;;;;;;;;;;;;;5097155;28;19977;-78
2022/06/06 04:56:51;;;;;;;;;;;;;;;;;;5079398;28;19915;-78
2022/06/06 04:59:18;;;;;;;;;;;;;;;;;;5078161;28;19970;-78
2022/06/06 05:01:43;;;;;;;;;;;;;;;;;;5096633;28;19926;-78
2022/06/06 05:04:08;;;;;;;;;;;;;;;;;;5082358;28;19920;-78
2022/06/06 05:06:50;;;;;;;;;;;;;;;;;;5082671;28;19927;-78
2022/06/06 05:09:21;;;;;;;;;;;;;;;;;;5083514;28;19916;-78
2022/06/06 05:11:53;;;;;;;;;;;;;;;;;;5082650;28;19924;-78
2022/06/06 05:14:43;;;;;;;;;;;;;;;;;;5084332;28;19916;-78
2022/06/06 05:17:12;;;;;;;;;;;;;;;;;;5077189;28;20056;-78
2022/06/06 05:19:38;;;;;;;;;;;;;;;;;;5060436;28;19927;-78
2022/06/06 05:22:16;;;;;;;;;;;;;;;;;;5094814;28;19916;-77
2022/06/06 05:24:54;;;;;;;;;;;;;;;;;;5076382;28;20018;-78
2022/06/06 05:27:43;;;;;;;;;;;;;;;;;;5059698;28;19923;-78
2022/06/06 05:30:28;;;;;;;;;;;;;;;;;;5076367;28;20003;-78
2022/06/06 05:33:26;;;;;;;;;;;;;;;;;;5076556;28;20301;-77
2022/06/06 05:36:11;;;;;;;;;;;;;;;;;;5027421;28;19916;-77
2022/06/06 05:39:16;;;;;;;;;;;;;;;;;;5059721;28;19916;-78
2022/06/06 05:41:59;;;;;;;;;;;;;;;;;;5015326;28;19925;-77
2022/06/06 05:44:37;;;;;;;;;;;;;;;;;;5015355;28;19921;-77
2022/06/06 05:47:19;;;;;;;;;;;;;;;;;;5041583;28;20305;-78
2022/06/06 05:49:45;;;;;;;;;;;;;;;;;;5079998;28;20369;-78
2022/06/06 05:52:27;;;;;;;;;;;;;;;;;;5062110;28;19923;-78
2022/06/06 05:55:04;;;;;;;;;;;;;;;;;;5061643;28;19963;-78
2022/06/06 05:57:47;;;;;;;;;;;;;;;;;;5082988;28;20014;-78
2022/06/06 06:00:19;;;;;;;;;;;;;;;;;;5084913;28;19927;-78
2022/06/06 06:03:05;;;;;;;;;;;;;;;;;;5081063;28;19950;-77
2022/06/06 06:05:43;;;;;;;;;;;;;;;;;;5097646;28;19961;-77
2022/06/06 06:08:27;;;;;;;;;;;;;;;;;;5080656;28;19920;-77
2022/06/06 06:11:03;;;;;;;;;;;;;;;;;;5080462;28;19923;-77
2022/06/06 06:13:47;;;;;;;;;;;;;;;;;;5098731;28;19920;-78
2022/06/06 06:16:15;;;;;;;;;;;;;;;;;;5084374;28;20346;-77
2022/06/06 06:18:47;;;;;;;;;;;;;;;;;;5101256;28;19916;-78
2022/06/06 06:21:20;;;;;;;;;;;;;;;;;;5080598;28;19927;-77
2022/06/06 06:24:04;;;;;;;;;;;;;;;;;;5114857;28;19915;-77
2022/06/06 06:26:30;;;;;;;;;;;;;;;;;;5095995;28;20006;-77
2022/06/06 06:28:59;;;;;;;;;;;;;;;;;;5096739;28;19966;-77
2022/06/06 06:31:33;;;;;;;;;;;;;;;;;;5079685;28;19948;-77
2022/06/06 06:34:18;;;;;;;;;;;;;;;;;;5096637;28;20010;-77
2022/06/06 06:36:45;;;;;;;;;;;;;;;;;;5078673;28;19920;-77
2022/06/06 06:39:14;;;;;;;;;;;;;;;;;;5092390;28;19924;-77
2022/06/06 06:41:39;;;;;;;;;;;;;;;;;;5058842;28;19920;-77
2022/06/06 06:44:09;;;;;;;;;;;;;;;;;;5095471;28;19927;-77
2022/06/06 06:46:37;;;;;;;;;;;;;;;;;;5078653;28;19916;-77
2022/06/06 06:49:23;;;;;;;;;;;;;;;;;;5095569;28;19916;-77
2022/06/06 06:51:57;;;;;;;;;;;;;;;;;;5048727;28;20289;-77
2022/06/06 06:54:32;;;;;;;;;;;;;;;;;;5061233;28;19916;-76
2022/06/06 06:57:03;;;;;;;;;;;;;;;;;;5062704;28;19916;-79
2022/06/06 06:59:47;;;;;;;;;;;;;;;;;;5075584;28;19920;-76
2022/06/06 07:08:35;;;;;;;;;;;;;;;;;;5079031;28;19982;-77
2022/06/06 07:11:01;;;;;;;;;;;;;;;;;;5062298;28;19966;-77
2022/06/06 07:13:28;;;;;;;;;;;;;;;;;;5082396;28;19956;-77
2022/06/06 07:16:09;;;;;;;;;;;;;;;;;;5098907;28;20300;-77
2022/06/06 07:18:36;;;;;;;;;;;;;;;;;;5082176;28;19932;-77
2022/06/06 07:21:05;;;;;;;;;;;;;;;;;;5116446;28;19920;-77
2022/06/06 07:23:33;;;;;;;;;;;;;;;;;;5098664;28;19922;-77
2022/06/06 07:26:00;;;;;;;;;;;;;;;;;;5081324;28;19923;-77
2022/06/06 07:28:26;;;;;;;;;;;;;;;;;;5081239;28;19927;-77
2022/06/06 07:30:59;;;;;;;;;;;;;;;;;;5097508;28;19916;-78
2022/06/06 07:33:32;;;;;;;;;;;;;;;;;;5098720;28;19915;-77
2022/06/06 07:36:00;;;;;;;;;;;;;;;;;;5081673;28;19916;-77
2022/06/06 07:38:40;;;;;;;;;;;;;;;;;;5082076;28;19916;-78
2022/06/06 07:41:27;;;;;;;;;;;;;;;;;;5082781;28;19927;-78
2022/06/06 07:44:06;;;;;;;;;;;;;;;;;;5081588;28;19970;-77
2022/06/06 07:46:39;;;;;;;;;;;;;;;;;;5083681;28;19939;-77
2022/06/06 07:49:08;;;;;;;;;;;;;;;;;;5101153;28;19922;-78
2022/06/06 07:51:37;;;;;;;;;;;;;;;;;;5084354;28;19915;-80
2022/06/06 07:54:05;;;;;;;;;;;;;;;;;;5098794;28;20373;-77
2022/06/06 07:56:40;;;;;;;;;;;;;;;;;;5084250;28;20460;-77
2022/06/06 07:59:06;;;;;;;;;;;;;;;;;;5084565;28;19924;-81
2022/06/06 08:01:50;;;;;;;;;;;;;;;;;;5101220;28;19972;-77
2022/06/06 08:04:15;;;;;;;;;;;;;;;;;;5082113;28;19926;-77
2022/06/06 08:06:46;;;;;;;;;;;;;;;;;;5117470;28;19919;-77
2022/06/06 08:09:28;;;;;;;;;;;;;;;;;;5098269;28;20389;-77
2022/06/06 08:11:54;;;;;;;;;;;;;;;;;;5097602;28;19978;-77
2022/06/06 08:14:27;;;;;;;;;;;;;;;;;;5080457;28;19977;-77
2022/06/06 08:16:54;;;;;;;;;;;;;;;;;;5097868;28;19916;-77
2022/06/06 08:19:26;;;;;;;;;;;;;;;;;;5081904;28;19939;-77
2022/06/06 08:21:51;;;;;;;;;;;;;;;;;;5098225;28;19920;-79
2022/06/06 08:24:22;;;;;;;;;;;;;;;;;;5105919;28;19928;-83
2022/06/06 08:26:50;;;;;;;;;;;;;;;;;;5099794;28;19916;-78
2022/06/06 08:29:17;;;;;;;;;;;;;;;;;;5099338;28;19926;-78
2022/06/06 08:31:42;;;;;;;;;;;;;;;;;;5098382;28;19916;-77
2022/06/06 08:34:12;;;;;;;;;;;;;;;;;;5096652;28;19937;-80
2022/06/06 08:36:51;;;;;;;;;;;;;;;;;;5098508;28;20362;-75
2022/06/06 08:39:16;;;;;;;;;;;;;;;;;;5080028;28;19969;-75
2022/06/06 08:42:08;;;;;;;;;;;;;;;;;;5096642;28;20329;-75
2022/06/06 08:44:49;;;;;;;;;;;;;;;;;;5080086;28;19923;-75
2022/06/06 08:47:18;;;;;;;;;;;;;;;;;;5096702;28;19919;-75
2022/06/06 08:53:08;;;;;;;;;;;;;;;;;;5074851;28;19925;-75
2022/06/06 08:55:54;;;;;;;;;;;;;;;;;;5096473;28;20270;-75
2022/06/06 08:58:19;;;;;;;;;;;;;;;;;;5096286;28;19915;-75
2022/06/06 09:01:03;;;;;;;;;;;;;;;;;;5095897;28;20015;-75
2022/06/06 09:03:47;;;;;;;;;;;;;;;;;;5105906;28;19922;-75
2022/06/06 09:06:31;;;;;;;;;;;;;;;;;;5075727;28;19961;-73
2022/06/06 09:09:26;;;;;;;;;;;;;;;;;;5102935;28;20385;-74
2022/06/06 09:11:52;;;;;;;;;;;;;;;;;;5087838;28;19916;-76
2022/06/06 09:14:33;;;;;;;;;;;;;;;;;;5068791;28;19922;-75
2022/06/06 09:17:11;;;;;;;;;;;;;;;;;;5115105;28;19916;-81
2022/06/06 09:19:53;;;;;;;;;;;;;;;;;;5087763;28;19927;-86
2022/06/06 09:22:39;;;;;;;;;;;;;;;;;;5120667;28;19916;-83
2022/06/06 09:25:11;;;;;;;;;;;;;;;;;;5085596;28;20022;-82
2022/06/06 09:27:47;;;;;;;;;;;;;;;;;;5116694;28;19916;-79
2022/06/06 09:30:17;;;;;;;;;;;;;;;;;;5083773;28;19919;-86
2022/06/06 09:32:42;;;;;;;;;;;;;;;;;;5083866;28;19916;-79
2022/06/06 09:35:15;;;;;;;;;;;;;;;;;;5099861;28;19927;-81
2022/06/06 09:38:19;;;;;;;;;;;;;;;;;;5101893;28;19915;-81
2022/06/06 09:40:56;;;;;;;;;;;;;;;;;;4993177;28;20023;-82
2022/06/06 09:43:43;;;;;;;;;;;;;;;;;;4992722;28;19928;-81
2022/06/06 09:46:22;;;;;;;;;;;;;;;;;;5073006;28;20393;-81
2022/06/06 09:48:57;;;;;;;;;;;;;;;;;;5094584;28;19923;-81
2022/06/06 09:51:22;;;;;;;;;;;;;;;;;;5071246;28;19923;-81
2022/06/06 09:59:01;;;;;;;;;;;;;;;;;;5087005;28;19922;-81
2022/06/06 09:59:39;;;;;;;;;;;;;;;;;;5091034;28;19920;-84
2022/06/06 10:02:23;;;;;;;;;;;;;;;;;;5071500;28;20002;-82
2022/06/06 10:04:58;;;;;;;;;;;;;;;;;;5084409;28;19920;-83
2022/06/06 10:07:26;;;;;;;;;;;;;;;;;;5114058;28;20035;-82
2022/06/06 10:10:00;;;;;;;;;;;;;;;;;;5091642;28;19951;-82
2022/06/06 10:12:45;;;;;;;;;;;;;;;;;;5113465;28;19916;-81
2022/06/06 10:15:30;;;;;;;;;;;;;;;;;;5093933;28;19916;-81
2022/06/06 10:18:08;;;;;;;;;;;;;;;;;;5100185;28;20338;-80
2022/06/06 10:20:34;;;;;;;;;;;;;;;;;;5063577;28;19927;-83
2022/06/06 10:23:06;;;;;;;;;;;;;;;;;;5067963;28;19916;-81
2022/06/06 10:25:44;;;;;;;;;;;;;;;;;;5067222;28;19972;-79
2022/06/06 10:28:21;;;;;;;;;;;;;;;;;;5069355;28;19920;-79
2022/06/06 10:31:01;;;;;;;;;;;;;;;;;;5084888;28;19987;-79
2022/06/06 10:33:36;;;;;;;;;;;;;;;;;;5084322;28;19942;-79
2022/06/06 10:36:11;;;;;;;;;;;;;;;;;;5072501;28;20004;-80
2022/06/06 10:38:37;;;;;;;;;;;;;;;;;;5088199;28;19915;-79
2022/06/06 10:41:03;;;;;;;;;;;;;;;;;;5087771;28;19927;-79
2022/06/06 10:43:30;;;;;;;;;;;;;;;;;;5128756;28;19915;-79
2022/06/06 10:46:08;;;;;;;;;;;;;;;;;;5094169;28;19963;-79
2022/06/06 10:48:39;;;;;;;;;;;;;;;;;;5072807;28;19916;-79
2022/06/06 10:53:56;;;;;;;;;;;;;;;;;;5088125;28;19938;-79
2022/06/06 10:56:36;;;;;;;;;;;;;;;;;;5086609;28;19916;-78
2022/06/06 10:59:10;;;;;;;;;;;;;;;;;;5095367;28;20499;-79
2022/06/06 11:01:54;;;;;;;;;;;;;;;;;;5108824;28;19935;-79
2022/06/06 11:04:32;;;;;;;;;;;;;;;;;;5087985;28;19916;-79
2022/06/06 11:07:17;;;;;;;;;;;;;;;;;;5087327;28;19965;-78
2022/06/06 11:10:02;;;;;;;;;;;;;;;;;;5098152;28;20037;-79
2022/06/06 11:12:41;;;;;;;;;;;;;;;;;;5067699;28;19923;-78
2022/06/06 11:15:09;;;;;;;;;;;;;;;;;;5093012;28;20364;-78
2022/06/06 11:18:00;;;;;;;;;;;;;;;;;;5088473;28;19920;-79
2022/06/06 11:20:46;;;;;;;;;;;;;;;;;;5105951;28;19920;-78
2022/06/06 11:23:31;;;;;;;;;;;;;;;;;;5088142;28;20027;-79
2022/06/06 11:25:56;;;;;;;;;;;;;;;;;;5103658;28;19920;-79
2022/06/06 11:28:40;;;;;;;;;;;;;;;;;;5097245;28;19916;-76
2022/06/06 11:31:23;;;;;;;;;;;;;;;;;;5096280;28;20358;-76
2022/06/06 11:33:58;;;;;;;;;;;;;;;;;;5096295;28;20052;-76
2022/06/06 11:36:26;;;;;;;;;;;;;;;;;;5094593;28;19948;-76
2022/06/06 11:39:10;;;;;;;;;;;;;;;;;;5096121;28;19939;-76
2022/06/06 11:41:35;;;;;;;;;;;;;;;;;;5094820;28;20351;-76
2022/06/06 11:44:08;;;;;;;;;;;;;;;;;;5095158;28;20389;-76
2022/06/06 11:46:45;;;;;;;;;;;;;;;;;;5077904;28;20006;-76
2022/06/06 11:49:29;;;;;;;;;;;;;;;;;;5077281;28;19916;-76
2022/06/06 11:52:12;;;;;;;;;;;;;;;;;;5077437;28;19916;-76
2022/06/06 11:54:57;;;;;;;;;;;;;;;;;;5094347;28;19920;-77
2022/06/06 11:57:41;;;;;;;;;;;;;;;;;;5077679;28;19923;-76
2022/06/06 12:00:18;;;;;;;;;;;;;;;;;;5094302;28;19927;-77
2022/06/06 12:02:46;;;;;;;;;;;;;;;;;;5094768;28;19916;-77
2022/06/06 12:05:21;;;;;;;;;;;;;;;;;;5077125;28;19931;-77
2022/06/06 12:07:47;;;;;;;;;;;;;;;;;;5075096;28;19993;-77
2022/06/06 12:10:22;;;;;;;;;;;;;;;;;;5057455;28;19963;-76
2022/06/06 12:12:53;;;;;;;;;;;;;;;;;;5076747;28;20011;-77
2022/06/06 12:15:19;;;;;;;;;;;;;;;;;;5094261;28;20297;-77
2022/06/06 12:17:50;;;;;;;;;;;;;;;;;;5094374;28;19927;-76
2022/06/06 12:20:28;;;;;;;;;;;;;;;;;;5095423;28;20385;-77
2022/06/06 12:22:59;;;;;;;;;;;;;;;;;;5073601;28;20075;-77
2022/06/06 12:25:46;;;;;;;;;;;;;;;;;;5080063;28;20452;-78
2022/06/06 12:28:25;;;;;;;;;;;;;;;;;;5056807;28;19952;-77
2022/06/06 12:31:10;;;;;;;;;;;;;;;;;;5073545;28;19982;-78
2022/06/06 12:33:40;;;;;;;;;;;;;;;;;;5074048;28;19943;-76
2022/06/06 12:36:15;;;;;;;;;;;;;;;;;;5057671;28;19921;-79
2022/06/06 12:38:47;;;;;;;;;;;;;;;;;;5057888;28;19917;-77
2022/06/06 12:41:31;;;;;;;;;;;;;;;;;;5056724;28;20019;-77
2022/06/06 12:44:02;;;;;;;;;;;;;;;;;;5069757;28;19938;-77
2022/06/06 12:46:46;;;;;;;;;;;;;;;;;;5078590;28;19916;-78
2022/06/06 12:49:14;;;;;;;;;;;;;;;;;;5094098;28;20010;-77
2022/06/06 12:52:02;;;;;;;;;;;;;;;;;;5093829;28;19958;-77
2022/06/06 12:57:35;;;;;;;;;;;;;;;;;;5082391;28;19916;-77
2022/06/06 13:00:05;;;;;;;;;;;;;;;;;;5093142;28;19927;-77
2022/06/06 13:02:31;;;;;;;;;;;;;;;;;;5080704;28;19929;-82
2022/06/06 13:05:12;;;;;;;;;;;;;;;;;;5089735;28;19937;-80
2022/06/06 13:07:43;;;;;;;;;;;;;;;;;;5062487;28;20445;-79
2022/06/06 13:10:14;;;;;;;;;;;;;;;;;;5075982;28;19927;-78
2022/06/06 13:12:48;;;;;;;;;;;;;;;;;;5076269;28;19922;-78
2022/06/06 13:15:31;;;;;;;;;;;;;;;;;;5059155;28;19917;-78
2022/06/06 13:18:15;;;;;;;;;;;;;;;;;;5076327;28;20015;-78
2022/06/06 13:20:46;;;;;;;;;;;;;;;;;;5076977;28;20167;-78
2022/06/06 13:23:30;;;;;;;;;;;;;;;;;;5078289;28;19963;-79
2022/06/06 13:26:07;;;;;;;;;;;;;;;;;;5078121;28;19960;-78
2022/06/06 13:28:41;;;;;;;;;;;;;;;;;;5061952;28;19966;-78
2022/06/06 13:31:13;;;;;;;;;;;;;;;;;;5078236;28;20366;-78
2022/06/06 13:33:47;;;;;;;;;;;;;;;;;;5081148;28;19923;-78
2022/06/06 13:36:31;;;;;;;;;;;;;;;;;;5084404;28;19923;-79
2022/06/06 13:38:59;;;;;;;;;;;;;;;;;;5103336;28;20248;-79
2022/06/06 13:41:38;;;;;;;;;;;;;;;;;;5084677;28;19983;-79
2022/06/06 13:44:23;;;;;;;;;;;;;;;;;;5080445;28;19919;-81
2022/06/06 13:47:01;;;;;;;;;;;;;;;;;;5101216;28;19915;-80
2022/06/06 13:49:48;;;;;;;;;;;;;;;;;;5099724;28;19916;-80
2022/06/06 13:52:17;;;;;;;;;;;;;;;;;;5081320;28;19920;-81
2022/06/06 13:54:43;;;;;;;;;;;;;;;;;;5081863;28;20007;-81
2022/06/06 13:57:21;;;;;;;;;;;;;;;;;;5081529;28;19950;-81
2022/06/06 13:59:47;;;;;;;;;;;;;;;;;;5082943;28;19920;-80
2022/06/06 14:02:32;;;;;;;;;;;;;;;;;;5083191;28;19928;-80
2022/06/06 14:05:09;;;;;;;;;;;;;;;;;;5083120;28;19937;-80
2022/06/06 14:07:40;;;;;;;;;;;;;;;;;;5104033;28;19916;-82
2022/06/06 14:10:07;;;;;;;;;;;;;;;;;;5088313;28;19927;-82
2022/06/06 14:12:36;;;;;;;;;;;;;;;;;;5088589;28;20370;-82
2022/06/06 14:15:09;;;;;;;;;;;;;;;;;;5086299;28;19916;-80
2022/06/06 14:17:37;;;;;;;;;;;;;;;;;;5089800;28;19916;-80
2022/06/06 14:20:32;;;;;;;;;;;;;;;;;;5087688;28;19990;-79
2022/06/06 14:23:17;;;;;;;;;;;;;;;;;;5083580;28;19923;-79
2022/06/06 14:25:47;;;;;;;;;;;;;;;;;;5099973;28;19927;-79
2022/06/06 14:28:16;;;;;;;;;;;;;;;;;;5089585;28;19917;-80
2022/06/06 14:30:41;;;;;;;;;;;;;;;;;;5088564;28;19950;-79
2022/06/06 14:33:20;;;;;;;;;;;;;;;;;;5087957;28;19917;-79
2022/06/06 14:35:46;;;;;;;;;;;;;;;;;;5087396;28;19927;-79
2022/06/06 14:38:16;;;;;;;;;;;;;;;;;;5086674;28;19916;-80
2022/06/06 14:40:46;;;;;;;;;;;;;;;;;;5086811;28;20321;-79
2022/06/06 14:43:12;;;;;;;;;;;;;;;;;;5087506;28;19923;-80
2022/06/06 14:45:39;;;;;;;;;;;;;;;;;;5097569;28;19917;-80
2022/06/06 14:48:06;;;;;;;;;;;;;;;;;;5069398;28;19916;-80
2022/06/06 14:50:48;;;;;;;;;;;;;;;;;;5067353;28;19916;-80
2022/06/06 14:53:19;;;;;;;;;;;;;;;;;;5067728;28;19920;-80
2022/06/06 14:55:45;;;;;;;;;;;;;;;;;;5064674;28;19916;-80
2022/06/06 14:58:12;;;;;;;;;;;;;;;;;;5068919;28;19916;-80
2022/06/06 15:00:46;;;;;;;;;;;;;;;;;;5086877;28;20327;-80
2022/06/06 15:03:12;;;;;;;;;;;;;;;;;;5070358;28;19916;-80
2022/06/06 15:05:38;;;;;;;;;;;;;;;;;;5093063;28;19922;-84
2022/06/06 15:08:10;;;;;;;;;;;;;;;;;;5082442;28;20313;-81
2022/06/06 15:10:41;;;;;;;;;;;;;;;;;;5082454;28;19917;-79
2022/06/06 15:13:07;;;;;;;;;;;;;;;;;;5099285;28;20010;-79
2022/06/06 15:15:34;;;;;;;;;;;;;;;;;;5099726;28;20408;-81
2022/06/06 15:18:00;;;;;;;;;;;;;;;;;;5081129;28;19912;-78
2022/06/06 15:20:31;;;;;;;;;;;;;;;;;;5097197;28;19924;-83
2022/06/06 15:23:17;;;;;;;;;;;;;;;;;;5082029;28;20389;-83
2022/06/06 15:25:48;;;;;;;;;;;;;;;;;;5081468;28;19916;-81
2022/06/06 15:28:23;;;;;;;;;;;;;;;;;;5064375;28;19959;-85
2022/06/06 15:31:06;;;;;;;;;;;;;;;;;;5102286;28;19987;-84
2022/06/06 15:33:39;;;;;;;;;;;;;;;;;;5082852;28;20370;-84
2022/06/06 15:36:12;;;;;;;;;;;;;;;;;;5099642;28;19923;-83
2022/06/06 15:38:40;;;;;;;;;;;;;;;;;;5081314;28;19924;-83
2022/06/06 15:41:12;;;;;;;;;;;;;;;;;;5082177;28;19987;-80
2022/06/06 15:43:40;;;;;;;;;;;;;;;;;;5082666;28;19948;-77
2022/06/06 15:46:06;;;;;;;;;;;;;;;;;;5100900;28;19965;-83
2022/06/06 15:48:42;;;;;;;;;;;;;;;;;;5102462;28;19916;-83
2022/06/06 15:51:11;;;;;;;;;;;;;;;;;;5099709;28;20007;-84
2022/06/06 15:53:53;;;;;;;;;;;;;;;;;;5104623;28;20016;-85
2022/06/06 15:56:18;;;;;;;;;;;;;;;;;;5105412;28;19923;-81
2022/06/06 15:59:02;;;;;;;;;;;;;;;;;;5072567;28;19916;-80
2022/06/06 16:01:30;;;;;;;;;;;;;;;;;;5088451;28;20290;-81
2022/06/06 16:04:15;;;;;;;;;;;;;;;;;;5073744;28;19916;-81
2022/06/06 16:06:42;;;;;;;;;;;;;;;;;;5112246;28;20389;-81
2022/06/06 16:09:13;;;;;;;;;;;;;;;;;;5095288;28;19924;-80
2022/06/06 16:11:57;;;;;;;;;;;;;;;;;;5113781;28;19916;-80
2022/06/06 16:14:47;;;;;;;;;;;;;;;;;;5112178;28;20286;-80
2022/06/06 16:17:19;;;;;;;;;;;;;;;;;;5095411;28;20069;-81
2022/06/06 16:19:49;;;;;;;;;;;;;;;;;;5095043;28;20014;-81
2022/06/06 16:22:19;;;;;;;;;;;;;;;;;;5095130;28;20010;-81
2022/06/06 16:24:54;;;;;;;;;;;;;;;;;;5094546;28;20000;-81
2022/06/06 16:27:39;;;;;;;;;;;;;;;;;;5088655;28;20389;-80
2022/06/06 16:30:34;;;;;;;;;;;;;;;;;;5092975;28;20376;-79
2022/06/06 16:33:00;;;;;;;;;;;;;;;;;;5071116;28;20326;-80
2022/06/06 16:35:27;;;;;;;;;;;;;;;;;;5093278;28;19916;-81
2022/06/06 16:37:54;;;;;;;;;;;;;;;;;;5093111;28;19938;-80
2022/06/06 16:40:46;;;;;;;;;;;;;;;;;;5104184;28;20334;-79
2022/06/06 16:49:25;;;;;;;;;;;;;;;;;;5107635;28;19968;-80
2022/06/06 16:51:57;;;;;;;;;;;;;;;;;;5091056;28;19937;-80
2022/06/06 16:54:41;;;;;;;;;;;;;;;;;;5089238;28;19955;-80
2022/06/06 16:57:11;;;;;;;;;;;;;;;;;;5092342;28;19916;-80
2022/06/06 16:59:42;;;;;;;;;;;;;;;;;;5105703;28;19931;-80
2022/06/06 17:02:12;;;;;;;;;;;;;;;;;;5106043;28;19916;-80
2022/06/06 17:04:42;;;;;;;;;;;;;;;;;;5089926;28;19916;-80
2022/06/06 17:10:11;;;;;;;;;;;;;;;;;;5106281;28;19916;-80
2022/06/06 17:12:39;;;;;;;;;;;;;;;;;;5087996;28;19955;-80
2022/06/06 17:15:32;;;;;;;;;;;;;;;;;;5084438;28;19916;-80
2022/06/06 17:17:59;;;;;;;;;;;;;;;;;;5064320;28;19946;-80
2022/06/06 17:20:33;;;;;;;;;;;;;;;;;;5068279;28;19920;-80
2022/06/06 17:23:04;;;;;;;;;;;;;;;;;;5068370;28;19916;-80
2022/06/06 17:25:33;;;;;;;;;;;;;;;;;;5068154;28;19924;-80
2022/06/06 17:28:04;;;;;;;;;;;;;;;;;;5084982;28;19956;-80
2022/06/06 17:30:41;;;;;;;;;;;;;;;;;;5068498;28;19917;-80
2022/06/06 17:33:25;;;;;;;;;;;;;;;;;;5068780;28;19921;-80
2022/06/06 17:35:51;;;;;;;;;;;;;;;;;;5088675;28;19916;-78
2022/06/06 17:38:23;;;;;;;;;;;;;;;;;;5088906;28;19916;-79
2022/06/06 17:40:51;;;;;;;;;;;;;;;;;;5091733;28;19920;-80
2022/06/06 17:43:25;;;;;;;;;;;;;;;;;;5099994;28;19916;-79
2022/06/06 17:46:05;;;;;;;;;;;;;;;;;;5085418;28;20034;-79
2022/06/06 17:48:38;;;;;;;;;;;;;;;;;;5103873;28;19916;-79
2022/06/06 17:51:15;;;;;;;;;;;;;;;;;;5085146;28;19938;-80
2022/06/06 17:53:59;;;;;;;;;;;;;;;;;;5102884;28;19951;-79
2022/06/06 17:56:25;;;;;;;;;;;;;;;;;;5104227;28;19916;-79
2022/06/06 17:59:00;;;;;;;;;;;;;;;;;;5085776;28;19983;-79
2022/06/06 18:01:27;;;;;;;;;;;;;;;;;;5083703;28;21277;-80
2022/06/06 18:04:14;;;;;;;;;;;;;;;;;;5100678;28;19935;-80
2022/06/06 18:06:58;;;;;;;;;;;;;;;;;;5084263;28;19923;-80
2022/06/06 18:09:30;;;;;;;;;;;;;;;;;;5101006;28;19923;-80